Verdon, Minnesota
Current Conditions -  °F | °C
As of 2:14 PM on Sunday 23 Nov 2014 (Local Time) from KAIT Reporting Station
Broken Clouds Broken Clouds  
Wind Chill:   Ceiling: 4900
Heat Index:   Visibility: 10mi
Dew Point:   Wind: 3mph
Humidity: 76%   Direction: 270°W
Pressure: 29.38"   Gusts: NA
Location:  46.7281°N, 93.6101°W
Report Text: KAIT 232014Z AUTO 27003KT 10SM BKN049 BKN060 06/02 A2938 RMK AO2
Loading
Personal Weather Stations






























Interactive Weather Map New forecast layout! Learn more

10-Day Weather Forecast

Advertisements
Track Severe Weather on mobile